createdAt,value
2024-01-17T00:00:21.160Z,96.47
2024-01-17T00:03:09.310Z,96.39
2024-01-17T00:05:37.957Z,96.41
2024-01-17T00:08:06.230Z,96.01
2024-01-17T00:10:34.245Z,95.77
2024-01-17T00:13:03.754Z,95.57
2024-01-17T00:15:31.869Z,95.47
2024-01-17T00:17:59.928Z,95.60
2024-01-17T00:20:28.531Z,95.53
2024-01-17T00:22:56.644Z,95.76
2024-01-17T00:25:24.779Z,95.88
2024-01-17T00:27:52.779Z,95.89
2024-01-17T00:30:21.026Z,95.81
2024-01-17T00:32:49.139Z,95.46
2024-01-17T00:35:17.156Z,95.22
2024-01-17T00:37:45.190Z,94.99
2024-01-17T00:40:13.399Z,94.96
2024-01-17T00:42:42.137Z,95.47
2024-01-17T00:45:11.644Z,95.67
2024-01-17T00:47:39.987Z,95.35
2024-01-17T00:50:09.046Z,95.57
2024-01-17T00:52:37.097Z,95.55
2024-01-17T00:55:06.675Z,95.45
2024-01-17T00:57:34.643Z,95.55
2024-01-17T01:00:03.525Z,95.59
2024-01-17T01:02:31.969Z,95.62
2024-01-17T01:05:00.036Z,95.47
2024-01-17T01:07:28.092Z,95.56
2024-01-17T01:09:57.558Z,95.41
2024-01-17T01:12:26.059Z,95.52
2024-01-17T01:14:54.381Z,95.25
2024-01-17T01:17:22.592Z,95.17
2024-01-17T01:19:50.946Z,94.92
2024-01-17T01:22:18.929Z,95.07
2024-01-17T01:24:46.906Z,95.03
2024-01-17T01:27:14.878Z,94.95
2024-01-17T01:29:43.426Z,95.13
2024-01-17T01:32:11.518Z,94.77
2024-01-17T01:34:39.924Z,94.98
2024-01-17T01:37:08.046Z,95.00
2024-01-17T01:39:36.017Z,94.88
2024-01-17T01:42:04.566Z,94.85
2024-01-17T01:44:32.898Z,94.98
2024-01-17T01:47:01.014Z,94.81
2024-01-17T01:49:29.247Z,94.47
2024-01-17T01:51:57.596Z,94.70
2024-01-17T01:54:26.623Z,94.99
2024-01-17T01:56:55.008Z,95.04
2024-01-17T01:59:23.165Z,95.08
2024-01-17T02:01:51.308Z,95.01
2024-01-17T02:04:19.411Z,94.88
2024-01-17T02:06:49.461Z,94.72
2024-01-17T02:09:17.594Z,94.26
2024-01-17T02:11:46.584Z,94.13
2024-01-17T02:14:20.508Z,94.14
2024-01-17T02:16:50.772Z,94.10
2024-01-17T02:19:19.261Z,94.02
2024-01-17T02:21:47.308Z,93.90
2024-01-17T02:24:19.535Z,93.70
2024-01-17T02:26:47.790Z,93.71
2024-01-17T02:29:15.975Z,93.80
2024-01-17T02:31:45.442Z,93.73
2024-01-17T02:34:14.160Z,93.99
2024-01-17T02:36:42.173Z,93.99
2024-01-17T02:39:11.773Z,94.26
2024-01-17T02:41:39.793Z,94.43
2024-01-17T02:44:07.911Z,94.38
2024-01-17T02:46:36.014Z,94.44
2024-01-17T02:49:04.526Z,94.50
2024-01-17T02:51:32.766Z,94.16
2024-01-17T02:54:00.957Z,94.02
2024-01-17T02:56:29.202Z,93.90
2024-01-17T02:58:57.168Z,93.68
2024-01-17T03:01:25.100Z,93.57
2024-01-17T03:03:53.113Z,93.46
2024-01-17T03:06:21.237Z,93.45
2024-01-17T03:08:49.264Z,93.44
2024-01-17T03:11:17.430Z,93.39
2024-01-17T03:13:45.482Z,93.56
2024-01-17T03:16:15.189Z,93.59
2024-01-17T03:18:43.386Z,93.62
2024-01-17T03:21:11.535Z,93.62
2024-01-17T03:23:39.670Z,93.68
2024-01-17T03:26:07.728Z,93.65
2024-01-17T03:28:35.746Z,93.74
2024-01-17T03:31:03.972Z,93.85
2024-01-17T03:33:32.090Z,93.92
2024-01-17T03:36:00.253Z,93.99
2024-01-17T03:38:28.255Z,93.89
2024-01-17T03:40:57.600Z,94.11
2024-01-17T03:43:25.652Z,94.02
2024-01-17T03:45:55.657Z,94.06
2024-01-17T03:48:23.836Z,94.13
2024-01-17T03:50:52.241Z,94.10
2024-01-17T03:53:20.313Z,94.18
2024-01-17T03:55:48.337Z,94.21
2024-01-17T03:58:16.409Z,94.27
2024-01-17T04:00:45.428Z,94.27
2024-01-17T04:03:14.120Z,94.36
2024-01-17T04:05:43.015Z,94.42
2024-01-17T04:08:11.062Z,94.51
2024-01-17T04:10:39.062Z,94.55
2024-01-17T04:13:07.018Z,94.55
2024-01-17T04:15:35.088Z,94.43
2024-01-17T04:18:03.311Z,94.41
2024-01-17T04:20:31.475Z,94.52
2024-01-17T04:22:59.844Z,94.54
2024-01-17T04:25:27.954Z,94.61
2024-01-17T04:27:55.885Z,94.63
2024-01-17T04:30:23.969Z,94.78
2024-01-17T04:32:52.127Z,94.79
2024-01-17T04:35:21.875Z,94.85
2024-01-17T04:37:49.890Z,94.89
2024-01-17T04:40:17.813Z,95.00
2024-01-17T04:42:49.746Z,95.02
2024-01-17T04:45:20.691Z,95.13
2024-01-17T04:47:51.491Z,95.11
2024-01-17T04:50:19.677Z,95.01
2024-01-17T04:52:47.698Z,95.12
2024-01-17T04:55:17.104Z,95.11
2024-01-17T04:57:45.053Z,95.24
2024-01-17T05:00:16.216Z,95.30
2024-01-17T05:02:44.229Z,95.34
2024-01-17T05:05:12.421Z,95.45
2024-01-17T05:07:41.100Z,95.42
2024-01-17T05:10:09.275Z,95.37
2024-01-17T05:12:37.317Z,95.31
2024-01-17T05:15:05.643Z,95.24
2024-01-17T05:17:33.921Z,95.19
2024-01-17T05:20:02.223Z,95.46
2024-01-17T05:22:30.242Z,95.63
2024-01-17T05:24:58.213Z,95.62
2024-01-17T05:27:26.201Z,95.63
2024-01-17T05:29:54.723Z,95.65
2024-01-17T05:32:22.819Z,95.73
2024-01-17T05:34:51.816Z,95.71
2024-01-17T05:37:22.913Z,95.76
2024-01-17T05:39:50.884Z,95.74
2024-01-17T05:42:18.864Z,95.72
2024-01-17T05:44:46.852Z,95.72
2024-01-17T05:47:15.893Z,95.74
2024-01-17T05:49:44.150Z,95.71
2024-01-17T05:52:12.093Z,95.72
2024-01-17T05:54:40.507Z,95.70
2024-01-17T05:57:08.596Z,95.73
2024-01-17T05:59:36.894Z,95.82
2024-01-17T06:02:04.935Z,95.87
2024-01-17T06:04:34.325Z,95.85
2024-01-17T06:07:02.359Z,95.77
2024-01-17T06:09:30.950Z,95.73
2024-01-17T06:11:58.956Z,95.74
2024-01-17T06:14:27.161Z,95.86
2024-01-17T06:16:55.077Z,95.85
2024-01-17T06:19:23.143Z,95.89
2024-01-17T06:21:51.071Z,95.83
2024-01-17T06:24:18.980Z,95.83
2024-01-17T06:26:47.001Z,95.91
2024-01-17T06:29:15.064Z,95.90
2024-01-17T06:31:43.142Z,95.85
2024-01-17T06:34:11.295Z,95.85
2024-01-17T06:36:40.983Z,95.87
2024-01-17T06:39:09.032Z,95.85
2024-01-17T06:41:38.023Z,95.94
2024-01-17T06:44:06.077Z,95.85
2024-01-17T06:46:34.165Z,95.84
2024-01-17T06:49:02.482Z,95.92
2024-01-17T06:51:30.883Z,95.83
2024-01-17T06:54:00.053Z,95.91
2024-01-17T06:56:28.585Z,95.84
2024-01-17T06:58:57.004Z,95.89
2024-01-17T07:01:25.222Z,95.92
2024-01-17T07:03:53.397Z,95.98
2024-01-17T07:06:21.740Z,95.98
2024-01-17T07:08:50.090Z,96.02
2024-01-17T07:11:19.276Z,96.05
2024-01-17T07:13:48.230Z,96.07
2024-01-17T07:16:16.898Z,96.09
2024-01-17T07:18:44.953Z,95.83
2024-01-17T07:21:13.662Z,95.60
2024-01-17T07:23:43.153Z,95.64
2024-01-17T07:26:11.219Z,95.56
2024-01-17T07:28:39.308Z,95.73
2024-01-17T07:31:07.271Z,95.81
2024-01-17T07:33:35.398Z,95.76
2024-01-17T07:36:04.002Z,95.53
2024-01-17T07:38:32.231Z,95.45
2024-01-17T07:41:00.307Z,95.67
2024-01-17T07:43:28.444Z,95.63
2024-01-17T07:45:57.366Z,95.49
2024-01-17T07:48:25.610Z,95.71
2024-01-17T07:50:53.950Z,95.62
2024-01-17T07:53:22.006Z,95.34
2024-01-17T07:55:50.204Z,95.29
2024-01-17T07:58:18.226Z,95.45
2024-01-17T08:00:46.364Z,95.41
2024-01-17T08:03:15.077Z,95.40
2024-01-17T08:05:44.121Z,95.32
2024-01-17T08:08:12.428Z,95.20
2024-01-17T08:10:40.491Z,95.13
2024-01-17T08:13:08.459Z,95.11
2024-01-17T08:15:36.645Z,95.22
2024-01-17T08:18:05.253Z,95.12
2024-01-17T08:20:33.851Z,95.27
2024-01-17T08:23:06.370Z,95.08
2024-01-17T08:25:34.419Z,95.07
2024-01-17T08:28:02.508Z,94.69
2024-01-17T08:30:30.665Z,94.55
2024-01-17T08:32:58.837Z,94.65
2024-01-17T08:35:27.022Z,94.97
2024-01-17T08:37:55.208Z,94.95
2024-01-17T08:40:23.269Z,94.88
2024-01-17T08:42:53.325Z,94.69
2024-01-17T08:45:21.415Z,94.45
2024-01-17T08:47:50.379Z,94.46
2024-01-17T08:50:18.669Z,94.29
2024-01-17T08:52:46.617Z,94.25
2024-01-17T08:55:14.812Z,93.74
2024-01-17T08:57:42.905Z,93.01
2024-01-17T09:00:12.838Z,93.10
2024-01-17T09:02:42.106Z,93.20
2024-01-17T09:05:10.263Z,93.23
2024-01-17T09:07:38.590Z,92.54
2024-01-17T09:10:07.985Z,92.56
2024-01-17T09:12:35.919Z,92.81
2024-01-17T09:15:04.307Z,92.64
2024-01-17T09:17:34.395Z,92.16
2024-01-17T09:20:02.640Z,92.01
2024-01-17T09:22:30.875Z,92.07
2024-01-17T09:25:01.878Z,91.96
2024-01-17T09:27:30.668Z,91.53
2024-01-17T09:29:59.419Z,91.19
2024-01-17T09:32:27.535Z,90.96
2024-01-17T09:34:55.845Z,91.14
2024-01-17T09:37:25.125Z,90.99
2024-01-17T09:39:54.109Z,90.64
2024-01-17T09:42:22.513Z,91.04
2024-01-17T09:44:50.712Z,90.35
2024-01-17T09:47:19.993Z,90.15
2024-01-17T09:49:48.131Z,90.41
2024-01-17T09:52:19.294Z,90.44
2024-01-17T09:54:49.604Z,90.10
2024-01-17T09:57:25.688Z,90.09
2024-01-17T09:59:58.220Z,89.65
2024-01-17T10:02:28.323Z,89.49
2024-01-17T10:04:58.773Z,89.32
2024-01-17T10:07:26.933Z,89.61
2024-01-17T10:09:55.015Z,89.01
2024-01-17T10:12:23.160Z,89.04
2024-01-17T10:14:51.426Z,89.42
2024-01-17T10:17:20.602Z,89.49
2024-01-17T10:19:49.123Z,89.66
2024-01-17T10:22:18.960Z,88.76
2024-01-17T10:24:47.086Z,88.44
2024-01-17T10:27:15.134Z,89.01
2024-01-17T10:29:43.459Z,89.07
2024-01-17T10:32:11.454Z,88.92
2024-01-17T10:34:40.014Z,88.79
2024-01-17T10:37:12.843Z,88.83
2024-01-17T10:39:42.054Z,88.71
2024-01-17T10:42:19.779Z,88.20
2024-01-17T10:44:48.688Z,86.85
2024-01-17T10:47:16.737Z,88.02
2024-01-17T10:49:46.084Z,87.57
2024-01-17T10:52:16.769Z,87.86
2024-01-17T10:54:47.977Z,87.26
2024-01-17T10:57:17.237Z,87.02
2024-01-17T10:59:50.303Z,86.68
2024-01-17T11:02:23.376Z,87.07
2024-01-17T11:04:58.545Z,86.90
2024-01-17T11:07:26.676Z,86.88
2024-01-17T11:09:56.286Z,86.94
2024-01-17T11:12:26.445Z,87.45
2024-01-17T11:14:58.370Z,87.74
2024-01-17T11:17:35.656Z,87.58
2024-01-17T11:20:13.347Z,87.11
2024-01-17T11:22:41.754Z,87.02
2024-01-17T11:25:24.537Z,86.90
2024-01-17T11:28:23.498Z,86.81
2024-01-17T11:30:57.586Z,86.95
2024-01-17T11:33:31.763Z,86.89
2024-01-17T11:36:00.285Z,86.67
2024-01-17T11:38:33.505Z,86.36
2024-01-17T11:41:07.817Z,86.84
2024-01-17T11:43:42.657Z,86.62
2024-01-17T11:46:11.939Z,86.46
2024-01-17T11:48:41.931Z,86.55
2024-01-17T11:51:13.417Z,86.54
2024-01-17T11:53:47.662Z,86.30
2024-01-17T11:56:17.678Z,85.56
2024-01-17T11:58:53.629Z,85.83
2024-01-17T12:01:25.334Z,86.30
2024-01-17T12:03:53.898Z,85.44
2024-01-17T12:06:23.409Z,85.59
2024-01-17T12:08:53.797Z,85.78
2024-01-17T12:11:23.320Z,85.36
2024-01-17T12:13:53.794Z,85.64
2024-01-17T12:16:24.259Z,84.81
2024-01-17T12:18:59.954Z,84.87
2024-01-17T12:21:28.696Z,85.38
2024-01-17T12:23:57.703Z,85.39
2024-01-17T12:26:25.746Z,85.04
2024-01-17T12:29:07.319Z,85.58
2024-01-17T12:31:35.847Z,85.11
2024-01-17T12:34:05.973Z,85.22
2024-01-17T12:36:36.802Z,84.21
2024-01-17T12:39:06.769Z,84.70
2024-01-17T12:41:37.204Z,84.01
2024-01-17T12:44:09.402Z,83.99
2024-01-17T12:46:37.655Z,84.17
2024-01-17T12:49:06.417Z,85.01
2024-01-17T12:51:35.894Z,84.66
2024-01-17T12:54:06.017Z,84.93
2024-01-17T12:56:36.557Z,84.50
2024-01-17T12:59:05.948Z,84.88
2024-01-17T13:01:36.281Z,84.34
2024-01-17T13:04:07.124Z,84.31
2024-01-17T13:06:49.400Z,84.38
2024-01-17T13:09:22.713Z,84.19
2024-01-17T13:11:55.623Z,84.19
2024-01-17T13:14:25.486Z,84.08
2024-01-17T13:16:57.603Z,84.12
2024-01-17T13:19:25.822Z,84.06
2024-01-17T13:21:53.935Z,84.07
2024-01-17T13:24:23.538Z,83.73
2024-01-17T13:26:51.782Z,83.90
2024-01-17T13:29:20.893Z,83.87
2024-01-17T13:31:49.053Z,84.14
2024-01-17T13:34:17.177Z,84.10
2024-01-17T13:36:45.343Z,83.79
2024-01-17T13:39:13.604Z,84.18
2024-01-17T13:41:42.994Z,84.01
2024-01-17T13:44:13.211Z,83.94
2024-01-17T13:46:41.711Z,83.96
2024-01-17T13:49:10.220Z,84.44
2024-01-17T13:51:47.817Z,84.77
2024-01-17T13:54:21.014Z,84.29
2024-01-17T13:56:49.178Z,84.36
2024-01-17T13:59:17.287Z,83.99
2024-01-17T14:01:45.373Z,84.24
2024-01-17T14:04:13.593Z,84.34
2024-01-17T14:06:41.977Z,84.52
2024-01-17T14:09:10.332Z,84.38
2024-01-17T14:11:40.470Z,84.18
2024-01-17T14:14:13.121Z,84.06
2024-01-17T14:16:42.371Z,84.49
2024-01-17T14:19:11.210Z,84.65
2024-01-17T14:21:39.456Z,84.56
2024-01-17T14:24:07.768Z,84.71
2024-01-17T14:26:39.104Z,84.68
2024-01-17T14:29:08.623Z,84.74
2024-01-17T14:31:36.726Z,85.01
2024-01-17T14:34:05.239Z,84.92
2024-01-17T14:36:34.806Z,84.93
2024-01-17T14:39:03.382Z,84.83
2024-01-17T14:41:31.501Z,84.97
2024-01-17T14:43:59.491Z,85.16
2024-01-17T14:46:28.091Z,85.03
2024-01-17T14:48:56.083Z,85.20
2024-01-17T14:51:24.174Z,85.18
2024-01-17T14:53:52.304Z,85.51
2024-01-17T14:56:21.096Z,85.45
2024-01-17T14:58:49.163Z,85.50
2024-01-17T15:01:17.203Z,85.47
2024-01-17T15:03:45.273Z,85.60
2024-01-17T15:06:23.958Z,85.74
2024-01-17T15:08:52.868Z,86.07
2024-01-17T15:11:21.011Z,85.96
2024-01-17T15:13:49.151Z,85.84
2024-01-17T15:16:23.925Z,85.90
2024-01-17T15:18:53.756Z,86.21
2024-01-17T15:21:22.234Z,86.43
2024-01-17T15:23:50.327Z,86.39
2024-01-17T15:26:18.550Z,86.39
2024-01-17T15:28:48.270Z,86.36
2024-01-17T15:31:16.927Z,86.63
2024-01-17T15:33:45.106Z,86.37
2024-01-17T15:36:13.345Z,86.66
2024-01-17T15:38:45.312Z,86.70
2024-01-17T15:41:16.354Z,86.76
2024-01-17T15:43:45.033Z,86.70
2024-01-17T15:46:13.028Z,86.60
2024-01-17T15:48:41.666Z,86.95
2024-01-17T15:51:10.353Z,86.93
2024-01-17T15:53:38.454Z,86.77
2024-01-17T15:56:06.531Z,86.87
2024-01-17T15:58:34.798Z,87.11
2024-01-17T16:01:07.030Z,86.97
2024-01-17T16:03:35.247Z,86.99
2024-01-17T16:06:06.129Z,87.11
2024-01-17T16:08:34.414Z,87.16
2024-01-17T16:11:02.477Z,87.12
2024-01-17T16:13:30.436Z,87.06
2024-01-17T16:15:58.571Z,87.20
2024-01-17T16:18:26.766Z,87.37
2024-01-17T16:20:55.293Z,87.26
2024-01-17T16:23:23.310Z,87.41
2024-01-17T16:25:51.434Z,87.25
2024-01-17T16:28:21.987Z,87.35
2024-01-17T16:30:55.370Z,87.53
2024-01-17T16:33:24.004Z,87.51
2024-01-17T16:35:52.434Z,87.38
2024-01-17T16:38:20.402Z,87.49
2024-01-17T16:40:48.384Z,87.54
2024-01-17T16:43:16.777Z,87.62
2024-01-17T16:45:44.882Z,87.87
2024-01-17T16:48:13.068Z,87.76
2024-01-17T16:50:43.317Z,88.06
2024-01-17T16:53:12.838Z,88.11
2024-01-17T16:55:41.084Z,88.21
2024-01-17T16:58:09.279Z,88.11
2024-01-17T17:00:37.814Z,88.32
2024-01-17T17:03:06.025Z,88.36
2024-01-17T17:05:34.207Z,88.40
2024-01-17T17:08:02.162Z,88.49
2024-01-17T17:10:32.997Z,88.61
2024-01-17T17:13:01.088Z,88.62
2024-01-17T17:15:29.179Z,88.72
2024-01-17T17:17:57.449Z,89.02
2024-01-17T17:20:25.835Z,88.93
2024-01-17T17:22:54.245Z,89.03
2024-01-17T17:25:22.478Z,89.18
2024-01-17T17:27:51.969Z,89.20
2024-01-17T17:30:20.213Z,89.12
2024-01-17T17:32:48.535Z,89.15
2024-01-17T17:35:16.937Z,89.25
2024-01-17T17:37:45.492Z,89.28
2024-01-17T17:40:15.413Z,89.37
2024-01-17T17:42:48.043Z,89.40
2024-01-17T17:45:18.233Z,89.35
2024-01-17T17:47:48.130Z,89.76
2024-01-17T17:50:27.067Z,89.69
2024-01-17T17:52:59.405Z,89.65
2024-01-17T17:55:27.578Z,89.78
2024-01-17T17:57:55.690Z,89.80
2024-01-17T18:00:24.447Z,89.85
2024-01-17T18:02:53.067Z,89.92
2024-01-17T18:05:21.463Z,90.09
2024-01-17T18:07:51.650Z,90.07
2024-01-17T18:10:21.945Z,90.18
2024-01-17T18:12:51.086Z,90.23
2024-01-17T18:15:19.287Z,90.21
2024-01-17T18:17:48.922Z,90.27
2024-01-17T18:20:22.558Z,90.25
2024-01-17T18:22:54.433Z,90.41
2024-01-17T18:25:24.197Z,90.72
2024-01-17T18:27:53.283Z,90.69
2024-01-17T18:30:21.403Z,90.59
2024-01-17T18:32:51.138Z,90.63
2024-01-17T18:35:19.760Z,90.63
2024-01-17T18:37:47.829Z,90.77
2024-01-17T18:40:15.874Z,90.86
2024-01-17T18:42:44.194Z,90.92
2024-01-17T18:45:12.406Z,91.02
2024-01-17T18:47:43.135Z,91.07
2024-01-17T18:50:15.564Z,90.99
2024-01-17T18:52:43.599Z,91.20
2024-01-17T18:55:11.656Z,91.04
2024-01-17T18:57:39.771Z,91.18
2024-01-17T19:00:08.810Z,91.19
2024-01-17T19:02:37.364Z,91.23
2024-01-17T19:05:05.814Z,91.22
2024-01-17T19:07:33.865Z,91.41
2024-01-17T19:10:01.919Z,91.47
2024-01-17T19:12:30.467Z,91.48
2024-01-17T19:14:58.574Z,91.57
2024-01-17T19:17:29.486Z,91.62
2024-01-17T19:20:00.021Z,91.73
2024-01-17T19:22:28.585Z,91.81
2024-01-17T19:24:56.649Z,92.06
2024-01-17T19:27:25.105Z,92.04
2024-01-17T19:29:55.259Z,92.07
2024-01-17T19:32:23.373Z,92.03
2024-01-17T19:34:51.390Z,92.11
2024-01-17T19:37:19.586Z,92.26
2024-01-17T19:39:47.678Z,92.35
2024-01-17T19:42:16.140Z,92.38
2024-01-17T19:44:44.557Z,92.52
2024-01-17T19:47:13.245Z,92.56
2024-01-17T19:49:41.957Z,92.67
2024-01-17T19:52:11.836Z,92.76
2024-01-17T19:54:40.189Z,92.85
2024-01-17T19:57:08.358Z,93.07
2024-01-17T19:59:36.386Z,93.09
2024-01-17T20:02:04.521Z,93.04
2024-01-17T20:04:32.521Z,92.96
2024-01-17T20:07:00.705Z,93.06
2024-01-17T20:09:28.960Z,93.09
2024-01-17T20:11:57.013Z,92.98
2024-01-17T20:14:25.280Z,93.00
2024-01-17T20:16:54.639Z,93.03
2024-01-17T20:19:22.803Z,93.10
2024-01-17T20:21:51.417Z,93.20
2024-01-17T20:24:19.468Z,93.17
2024-01-17T20:26:47.635Z,93.28
2024-01-17T20:29:34.314Z,93.33
2024-01-17T20:32:02.349Z,93.39
2024-01-17T20:34:31.947Z,93.55
2024-01-17T20:37:08.599Z,93.47
2024-01-17T20:39:38.761Z,93.65
2024-01-17T20:42:07.641Z,93.59
2024-01-17T20:44:38.908Z,93.76
2024-01-17T20:47:07.097Z,93.91
2024-01-17T20:49:35.026Z,93.89
2024-01-17T20:52:04.839Z,94.23
2024-01-17T20:54:32.891Z,94.29
2024-01-17T20:57:00.903Z,94.33
2024-01-17T20:59:28.896Z,94.34
2024-01-17T21:01:56.946Z,94.38
2024-01-17T21:04:24.955Z,94.49
2024-01-17T21:06:52.972Z,94.58
2024-01-17T21:09:23.342Z,94.68
2024-01-17T21:11:51.562Z,94.82
2024-01-17T21:14:19.535Z,94.85
2024-01-17T21:16:47.533Z,95.21
2024-01-17T21:19:15.838Z,95.35
2024-01-17T21:21:44.275Z,95.37
2024-01-17T21:24:14.044Z,95.41
2024-01-17T21:26:45.520Z,95.43
2024-01-17T21:29:15.603Z,95.43
2024-01-17T21:31:44.064Z,95.57
2024-01-17T21:34:12.658Z,95.66
2024-01-17T21:36:40.899Z,95.69
2024-01-17T21:39:10.673Z,95.66
2024-01-17T21:41:38.831Z,95.61
2024-01-17T21:44:08.991Z,95.73
2024-01-17T21:46:37.383Z,95.85
2024-01-17T21:49:05.967Z,95.93
2024-01-17T21:51:37.180Z,96.02
2024-01-17T21:54:05.862Z,96.24
2024-01-17T21:56:34.365Z,96.40
2024-01-17T21:59:02.526Z,96.19
2024-01-17T22:01:30.725Z,96.20
2024-01-17T22:03:59.884Z,96.26
2024-01-17T22:08:59.680Z,96.66
2024-01-17T22:11:28.008Z,96.66
2024-01-17T22:13:56.334Z,96.90
2024-01-17T22:16:24.526Z,97.13
2024-01-17T22:18:52.595Z,97.43
2024-01-17T22:21:20.830Z,97.65
2024-01-17T22:23:48.950Z,97.61
2024-01-17T22:26:16.967Z,97.61
2024-01-17T22:28:45.306Z,97.77
2024-01-17T22:31:14.302Z,98.34
2024-01-17T22:33:42.433Z,98.57
2024-01-17T22:36:20.276Z,98.54
2024-01-17T22:38:49.281Z,98.61
2024-01-17T22:41:17.683Z,98.79
2024-01-17T22:43:46.295Z,99.00
2024-01-17T22:46:15.181Z,99.04
2024-01-17T22:48:43.428Z,99.11
2024-01-17T22:51:11.520Z,98.98
2024-01-17T22:53:39.429Z,98.96
2024-01-17T22:56:07.704Z,98.94
2024-01-17T22:58:35.743Z,98.96
2024-01-17T23:01:03.771Z,98.92
2024-01-17T23:03:32.565Z,98.94
2024-01-17T23:06:00.589Z,99.03
2024-01-17T23:08:28.661Z,99.02
2024-01-17T23:11:01.927Z,98.99
2024-01-17T23:13:36.083Z,98.96
2024-01-17T23:16:04.329Z,99.08
2024-01-17T23:18:32.562Z,99.26
2024-01-17T23:21:00.863Z,99.26
2024-01-17T23:23:28.788Z,99.38
2024-01-17T23:25:56.752Z,99.44
2024-01-17T23:28:24.717Z,99.62
2024-01-17T23:30:53.160Z,99.73
2024-01-17T23:33:21.953Z,99.71
2024-01-17T23:35:50.015Z,99.75
2024-01-17T23:38:17.961Z,99.71
2024-01-17T23:40:45.894Z,99.96
2024-01-17T23:43:13.799Z,100.00
2024-01-17T23:45:41.997Z,100.00
2024-01-17T23:48:10.731Z,100.00
2024-01-17T23:50:38.802Z,100.00
2024-01-17T23:55:48.430Z,100.00
2024-01-17T23:58:41.590Z,100.00
